This is the latest recevied weather packets stored in our database for station/object IZ1BLA-10. If no packets are shown the sender has not sent any weather packets the latest 10 day(s).
| Time | Temp. | Humidity | Pressure | Rain* | Wind** | Luminosity | Snow |
|---|---|---|---|---|---|---|---|
| 1777969755 | 13.33° C | 70% | 1013.1 hPa | - | - | - | - |
| 1777969155 | 12.22° C | 77% | 1013.5 hPa | - | - | - | - |
| 1777968554 | 12.78° C | 74% | 1013.2 hPa | - | - | - | - |
| 1777967955 | 11.67° C | 82% | 1013.5 hPa | - | - | - | - |
| 1777967355 | 11.11° C | 84% | 1014 hPa | - | - | - | - |
| 1777966754 | 11.67° C | 84% | 1013.7 hPa | - | - | - | - |
| 1777966155 | 11.11° C | 86% | 1013.9 hPa | - | - | - | - |
| 1777965555 | 10.56° C | 84% | 1014.1 hPa | - | - | - | - |
| 1777964954 | 10.56° C | 80% | 1014.2 hPa | - | - | - | - |
| 1777964354 | 13.33° C | 73% | 1013.5 hPa | - | - | - | - |
| 1777963754 | 12.22° C | 73% | 1013.6 hPa | - | - | - | - |
| 1777963154 | 10.56° C | 83% | 1014.1 hPa | - | - | - | - |
| 1777962555 | 12.22° C | 73% | 1013.8 hPa | - | - | - | - |
| 1777961954 | 11.67° C | 73% | 1013.8 hPa | - | - | - | - |
| 1777961355 | 11.67° C | 75% | 1013.8 hPa | - | - | - | - |
| 1777960754 | 12.78° C | 69% | 1013.3 hPa | - | - | - | - |
| 1777960155 | 11.11° C | 76% | 1013.7 hPa | - | - | - | - |
| 1777959554 | 10° C | 79% | 1014.1 hPa | - | - | - | - |
| 1777958955 | 11.11° C | 74% | 1013.7 hPa | - | - | - | - |
| 1777958355 | 10.56° C | 77% | 1013.7 hPa | - | - | - | - |
| 1777957755 | 11.11° C | 77% | 1013.6 hPa | - | - | - | - |
| 1777957154 | 10.56° C | 78% | 1013.7 hPa | - | - | - | - |
| 1777956554 | 11.67° C | 74% | 1013.6 hPa | - | - | - | - |
| 1777955954 | 11.67° C | 76% | 1013.5 hPa | - | - | - | - |
| 1777955354 | 11.11° C | 77% | 1013.7 hPa | - | - | - | - |
* Rain since midnight (hover to see other rain measurements)
** Current wind speed in m/s (hover to see current wind gust speed)